createdAt,value
2019-04-04T00:01:35.618Z,98874.50
2019-04-04T00:04:05.269Z,98885.06
2019-04-04T00:06:34.249Z,98873.90
2019-04-04T00:09:05.465Z,98868.73
2019-04-04T00:11:36.930Z,98871.84
2019-04-04T00:14:07.178Z,98883.24
2019-04-04T00:16:36.626Z,98899.64
2019-04-04T00:19:05.683Z,98888.52
2019-04-04T00:21:34.652Z,98899.16
2019-04-04T00:24:04.483Z,98894.54
2019-04-04T00:26:33.753Z,98890.40
2019-04-04T00:29:03.192Z,98888.89
2019-04-04T00:31:32.682Z,98885.88
2019-04-04T00:34:02.593Z,98893.28
2019-04-04T00:36:33.860Z,98905.52
2019-04-04T00:39:02.650Z,98900.00
2019-04-04T00:41:31.404Z,98884.39
2019-04-04T00:44:00.464Z,98869.62
2019-04-04T00:46:30.886Z,98856.00
2019-04-04T00:49:00.703Z,98854.26
2019-04-04T00:51:29.441Z,98860.27
2019-04-04T00:53:58.139Z,98860.96
2019-04-04T00:56:26.830Z,98856.47
2019-04-04T00:58:55.917Z,98849.28
2019-04-04T01:01:26.949Z,98837.80
2019-04-04T01:03:56.105Z,98841.36
2019-04-04T01:06:24.792Z,98859.00
2019-04-04T01:08:53.464Z,98862.09
2019-04-04T01:11:22.482Z,98844.00
2019-04-04T01:13:51.180Z,98838.36
2019-04-04T01:16:19.850Z,98833.28
2019-04-04T01:18:49.164Z,98827.95
2019-04-04T01:21:18.196Z,98822.66
2019-04-04T01:23:46.881Z,98808.52
2019-04-04T01:26:15.555Z,98806.00
2019-04-04T01:28:44.798Z,98799.27
2019-04-04T01:31:15.006Z,98794.36
2019-04-04T01:33:44.195Z,98785.78
2019-04-04T01:36:12.849Z,98782.52
2019-04-04T01:38:41.525Z,98783.55
2019-04-04T01:41:10.176Z,98795.09
2019-04-04T01:43:40.079Z,98807.50
2019-04-04T01:46:09.774Z,98818.91
2019-04-04T01:48:38.433Z,98820.94
2019-04-04T01:51:07.971Z,98800.03
2019-04-04T01:53:36.773Z,98798.70
2019-04-04T01:56:06.760Z,98808.35
2019-04-04T01:58:36.390Z,98801.33
2019-04-04T02:01:05.216Z,98810.91
2019-04-04T02:03:34.181Z,98807.91
2019-04-04T02:06:02.856Z,98809.78
2019-04-04T02:08:32.089Z,98813.61
2019-04-04T02:11:00.846Z,98829.77
2019-04-04T02:13:29.520Z,98827.13
2019-04-04T02:15:58.196Z,98832.69
2019-04-04T02:18:26.854Z,98828.23
2019-04-04T02:20:57.690Z,98815.80
2019-04-04T02:23:25.932Z,98814.33
2019-04-04T02:25:54.640Z,98815.80
2019-04-04T02:28:23.321Z,98826.84
2019-04-04T02:30:52.580Z,98831.88
2019-04-04T02:33:21.245Z,98839.39
2019-04-04T02:35:49.909Z,98831.31
2019-04-04T02:38:18.583Z,98821.80
2019-04-04T02:40:47.259Z,98832.77
2019-04-04T02:43:15.892Z,98831.59
2019-04-04T02:45:44.615Z,98828.80
2019-04-04T02:48:13.255Z,98829.92
2019-04-04T02:50:41.918Z,98815.49
2019-04-04T02:53:10.593Z,98793.28
2019-04-04T02:55:39.280Z,98808.28
2019-04-04T02:58:07.944Z,98810.45
2019-04-04T03:00:36.662Z,98799.86
2019-04-04T03:03:08.356Z,98784.23
2019-04-04T03:05:35.975Z,98781.28
2019-04-04T03:08:04.808Z,98788.96
2019-04-04T03:10:33.885Z,98788.02
2019-04-04T03:13:02.624Z,98776.48
2019-04-04T03:15:31.300Z,98778.36
2019-04-04T03:18:04.078Z,98792.67
2019-04-04T03:20:30.519Z,98786.84
2019-04-04T03:23:00.485Z,98771.98
2019-04-04T03:25:29.594Z,98765.59
2019-04-04T03:27:59.334Z,98746.55
2019-04-04T03:30:28.206Z,98735.30
2019-04-04T03:32:56.958Z,98754.84
2019-04-04T03:35:28.246Z,98770.99
2019-04-04T03:37:56.324Z,98778.58
2019-04-04T03:40:25.923Z,98784.40
2019-04-04T03:42:54.703Z,98790.42
2019-04-04T03:45:26.060Z,98795.31
2019-04-04T03:47:53.769Z,98796.86
2019-04-04T03:50:22.420Z,98802.20
2019-04-04T03:52:51.102Z,98806.82
2019-04-04T03:55:19.781Z,98794.09
2019-04-04T03:57:48.446Z,98793.06
2019-04-04T04:00:27.341Z,98794.63
2019-04-04T04:02:56.463Z,98794.75
2019-04-04T04:05:26.672Z,98794.19
2019-04-04T04:07:55.498Z,98806.02
2019-04-04T04:10:24.227Z,98802.00
2019-04-04T04:12:52.957Z,98796.07
2019-04-04T04:15:21.652Z,98803.05
2019-04-04T04:17:50.382Z,98805.36
2019-04-04T04:20:19.042Z,98807.86
2019-04-04T04:22:50.308Z,98800.86
2019-04-04T04:25:18.129Z,98788.81
2019-04-04T04:27:48.409Z,98784.41
2019-04-04T04:30:17.548Z,98788.20
2019-04-04T04:32:46.190Z,98782.37
2019-04-04T04:35:14.853Z,98785.10
2019-04-04T04:37:43.520Z,98783.47
2019-04-04T04:40:14.914Z,98779.30
2019-04-04T04:42:42.679Z,98769.59
2019-04-04T04:45:12.469Z,98741.63
2019-04-04T04:47:41.359Z,98730.27
2019-04-04T04:50:10.162Z,98733.10
2019-04-04T04:52:38.852Z,98733.83
2019-04-04T04:55:07.588Z,98742.45
2019-04-04T04:57:37.249Z,98747.32
2019-04-04T05:00:06.989Z,98760.48
2019-04-04T05:02:35.667Z,98766.38
2019-04-04T05:05:04.527Z,98782.22
2019-04-04T05:07:33.181Z,98787.52
2019-04-04T05:10:01.855Z,98782.91
2019-04-04T05:12:30.504Z,98778.66
2019-04-04T05:15:01.231Z,98786.03
2019-04-04T05:17:29.584Z,98773.91
2019-04-04T05:19:58.255Z,98761.95
2019-04-04T05:22:26.897Z,98757.93
2019-04-04T05:25:07.783Z,98754.44
2019-04-04T05:27:25.986Z,98747.23
2019-04-04T05:29:54.698Z,98748.54
2019-04-04T05:32:23.381Z,98748.13
2019-04-04T05:34:52.065Z,98744.20
2019-04-04T05:37:20.699Z,98752.77
2019-04-04T05:39:51.461Z,98748.83
2019-04-04T05:42:19.756Z,98754.61
2019-04-04T05:44:48.431Z,98764.11
2019-04-04T05:47:17.082Z,98762.58
2019-04-04T05:49:45.758Z,98748.58
2019-04-04T05:52:14.416Z,98748.02
2019-04-04T05:54:43.103Z,98739.17
2019-04-04T05:57:11.770Z,98744.63
2019-04-04T05:59:42.288Z,98740.05
2019-04-04T06:02:11.571Z,98735.52
2019-04-04T06:04:40.794Z,98736.48
2019-04-04T06:07:09.544Z,98758.04
2019-04-04T06:09:38.278Z,98759.53
2019-04-04T06:12:07.113Z,98751.47
2019-04-04T06:14:35.796Z,98760.33
2019-04-04T06:17:05.102Z,98753.35
2019-04-04T06:19:35.036Z,98756.25
2019-04-04T06:22:03.696Z,98762.70
2019-04-04T06:24:32.347Z,98782.67
2019-04-04T06:27:01.069Z,98795.80
2019-04-04T06:29:29.763Z,98794.30
2019-04-04T06:32:00.292Z,98776.52
2019-04-04T06:34:28.829Z,98773.73
2019-04-04T06:36:57.495Z,98778.48
2019-04-04T06:39:26.188Z,98778.48
2019-04-04T06:41:54.838Z,98786.52
2019-04-04T06:44:23.501Z,98785.80
2019-04-04T06:46:53.605Z,98786.16
2019-04-04T06:49:22.828Z,98783.38
2019-04-04T06:51:51.481Z,98792.32
2019-04-04T06:54:20.164Z,98789.84
2019-04-04T06:56:48.844Z,98790.16
2019-04-04T06:59:17.524Z,98790.27
2019-04-04T07:01:46.177Z,98792.72
2019-04-04T07:04:17.170Z,98797.89
2019-04-04T07:06:45.269Z,98805.64
2019-04-04T07:09:13.977Z,98807.13
2019-04-04T07:11:42.658Z,98786.80
2019-04-04T07:14:11.336Z,98783.46
2019-04-04T07:16:40.019Z,98786.84
2019-04-04T07:19:08.688Z,98789.34
2019-04-04T07:21:37.339Z,98778.19
2019-04-04T07:24:06.071Z,98767.63
2019-04-04T07:26:34.776Z,98775.64
2019-04-04T07:29:03.568Z,98789.45
2019-04-04T07:31:34.049Z,98802.55
2019-04-04T07:34:02.632Z,98806.86
2019-04-04T07:36:31.310Z,98804.63
2019-04-04T07:39:00.298Z,98809.94
2019-04-04T07:41:29.764Z,98818.69
2019-04-04T07:43:58.719Z,98821.14
2019-04-04T07:46:27.463Z,98814.95
2019-04-04T07:48:56.162Z,98810.71
2019-04-04T07:51:24.809Z,98812.78
2019-04-04T07:53:53.512Z,98805.25
2019-04-04T07:56:22.170Z,98782.44
2019-04-04T07:58:50.829Z,98785.55
2019-04-04T08:01:19.526Z,98777.67
2019-04-04T08:03:48.196Z,98777.95
2019-04-04T08:06:16.850Z,98794.02
2019-04-04T08:08:45.539Z,98796.39
2019-04-04T08:11:14.284Z,98801.50
2019-04-04T08:13:42.948Z,98803.77
2019-04-04T08:16:11.708Z,98800.70
2019-04-04T08:18:40.368Z,98794.42
2019-04-04T08:21:09.080Z,98781.87
2019-04-04T08:23:37.749Z,98786.45
2019-04-04T08:26:06.506Z,98792.42
2019-04-04T08:28:35.202Z,98787.73
2019-04-04T08:31:03.886Z,98781.06
2019-04-04T08:33:32.550Z,98777.86
2019-04-04T08:36:06.236Z,98784.03
2019-04-04T08:38:31.646Z,98785.38
2019-04-04T08:41:00.302Z,98789.56
2019-04-04T08:43:28.991Z,98788.34
2019-04-04T08:45:57.663Z,98795.25
2019-04-04T08:48:26.350Z,98783.48
2019-04-04T08:50:55.020Z,98782.02
2019-04-04T08:53:23.700Z,98784.38
2019-04-04T08:55:52.394Z,98783.80
2019-04-04T08:58:21.055Z,98784.13
2019-04-04T09:00:49.754Z,98785.97
2019-04-04T09:03:18.417Z,98779.44
2019-04-04T09:05:47.074Z,98772.50
2019-04-04T09:08:15.769Z,98772.64
2019-04-04T09:10:44.441Z,98779.44
2019-04-04T09:13:13.108Z,98788.23
2019-04-04T09:15:41.783Z,98785.78
2019-04-04T09:18:10.460Z,98796.89
2019-04-04T09:20:39.163Z,98799.89
2019-04-04T09:23:08.240Z,98805.55
2019-04-04T09:25:37.069Z,98811.70
2019-04-04T09:28:05.804Z,98805.18
2019-04-04T09:30:34.524Z,98799.66
2019-04-04T09:33:03.206Z,98800.79
2019-04-04T09:35:31.879Z,98811.09
2019-04-04T09:38:00.553Z,98809.16
2019-04-04T09:40:29.248Z,98807.61
2019-04-04T09:42:57.916Z,98806.88
2019-04-04T09:45:26.613Z,98816.00
2019-04-04T09:47:55.277Z,98810.45
2019-04-04T09:50:24.132Z,98808.03
2019-04-04T09:52:53.094Z,98810.81
2019-04-04T09:55:21.855Z,98805.14
2019-04-04T09:57:50.545Z,98812.03
2019-04-04T10:00:21.040Z,98814.89
2019-04-04T10:02:49.982Z,98812.84
2019-04-04T10:05:18.999Z,98807.02
2019-04-04T10:07:47.675Z,98795.68
2019-04-04T10:10:17.095Z,98792.45
2019-04-04T10:12:45.857Z,98791.34
2019-04-04T10:15:16.288Z,98785.81
2019-04-04T10:17:45.416Z,98777.00
2019-04-04T10:20:14.434Z,98772.29
2019-04-04T10:22:43.107Z,98775.20
2019-04-04T10:25:12.057Z,98771.32
2019-04-04T10:27:40.710Z,98764.44
2019-04-04T10:30:10.251Z,98766.27
2019-04-04T10:32:39.261Z,98759.95
2019-04-04T10:35:08.353Z,98766.01
2019-04-04T10:37:37.098Z,98769.11
2019-04-04T10:40:06.541Z,98765.85
2019-04-04T10:42:35.195Z,98763.66
2019-04-04T10:45:05.386Z,98765.48
2019-04-04T10:47:34.065Z,98768.68
2019-04-04T10:50:03.187Z,98770.14
2019-04-04T10:52:32.243Z,98775.42
2019-04-04T10:55:01.710Z,98777.88
2019-04-04T10:57:30.501Z,98773.11
2019-04-04T10:59:59.166Z,98764.70
2019-04-04T11:02:27.822Z,98772.67
2019-04-04T11:04:56.504Z,98772.44
2019-04-04T11:07:25.166Z,98776.97
2019-04-04T11:09:53.859Z,98789.17
2019-04-04T11:12:22.521Z,98788.47
2019-04-04T11:14:51.183Z,98781.54
2019-04-04T11:17:19.861Z,98796.89
2019-04-04T11:19:48.529Z,98796.43
2019-04-04T11:22:17.219Z,98786.02
2019-04-04T11:24:45.881Z,98784.30
2019-04-04T11:27:17.334Z,98783.89
2019-04-04T11:29:45.044Z,98788.67
2019-04-04T11:32:13.741Z,98775.34
2019-04-04T11:34:52.698Z,98769.18
2019-04-04T11:37:12.797Z,98766.72
2019-04-04T11:39:53.672Z,98757.09
2019-04-04T11:42:12.015Z,98753.12
2019-04-04T11:44:40.679Z,98755.11
2019-04-04T11:47:09.354Z,98753.45
2019-04-04T11:49:38.050Z,98748.67
2019-04-04T11:52:06.806Z,98757.48
2019-04-04T11:54:55.437Z,98761.42
2019-04-04T11:57:24.156Z,98759.50
2019-04-04T11:59:52.858Z,98749.81
2019-04-04T12:02:21.642Z,98758.43
2019-04-04T12:04:50.311Z,98766.88
2019-04-04T12:07:18.983Z,98776.00
2019-04-04T12:09:47.644Z,98797.27
2019-04-04T12:12:16.318Z,98797.42
2019-04-04T12:14:44.985Z,98792.94
2019-04-04T12:17:13.663Z,98803.69
2019-04-04T12:19:42.329Z,98806.82
2019-04-04T12:22:11.948Z,98807.05
2019-04-04T12:24:40.756Z,98816.89
2019-04-04T12:27:09.419Z,98818.43
2019-04-04T12:29:38.113Z,98794.95
2019-04-04T12:32:06.867Z,98815.05
2019-04-04T12:34:35.525Z,98817.05
2019-04-04T12:37:04.199Z,98808.91
2019-04-04T12:39:32.866Z,98823.02
2019-04-04T12:42:01.544Z,98816.47
2019-04-04T12:44:30.238Z,98804.87
2019-04-04T12:46:58.917Z,98798.66
2019-04-04T12:49:27.616Z,98793.38
2019-04-04T12:51:56.285Z,98797.92
2019-04-04T12:54:24.991Z,98792.45
2019-04-04T12:56:53.644Z,98788.16
2019-04-04T12:59:22.336Z,98779.78
2019-04-04T13:01:50.999Z,98782.84
2019-04-04T13:04:30.678Z,98781.53
2019-04-04T13:06:50.072Z,98775.67
2019-04-04T13:09:18.732Z,98775.59
2019-04-04T13:11:47.419Z,98774.58
2019-04-04T13:14:16.085Z,98776.47
2019-04-04T13:16:44.737Z,98773.09
2019-04-04T13:19:13.443Z,98774.71
2019-04-04T13:21:42.105Z,98780.39
2019-04-04T13:24:10.765Z,98777.48
2019-04-04T13:26:39.459Z,98770.78
2019-04-04T13:29:08.137Z,98774.69
2019-04-04T13:31:36.874Z,98776.73
2019-04-04T13:34:05.563Z,98787.00
2019-04-04T13:36:36.596Z,98794.00
2019-04-04T13:39:08.878Z,98797.13
2019-04-04T13:41:37.572Z,98799.77
2019-04-04T13:44:06.382Z,98801.80
2019-04-04T13:46:35.135Z,98790.50
2019-04-04T13:49:03.860Z,98795.09
2019-04-04T13:51:32.543Z,98790.97
2019-04-04T13:54:01.279Z,98777.42
2019-04-04T13:56:29.938Z,98781.98
2019-04-04T13:59:00.946Z,98790.50
2019-04-04T14:01:29.016Z,98796.53
2019-04-04T14:03:57.673Z,98804.00
2019-04-04T14:06:26.465Z,98804.03
2019-04-04T14:08:55.119Z,98808.58
2019-04-04T14:11:23.805Z,98814.98
2019-04-04T14:13:52.463Z,98828.48
2019-04-04T14:16:21.116Z,98819.61
2019-04-04T14:18:49.808Z,98834.18
2019-04-04T14:21:18.466Z,98845.99
2019-04-04T14:23:47.118Z,98864.01
2019-04-04T14:26:15.807Z,98867.23
2019-04-04T14:28:44.474Z,98889.63
2019-04-04T14:31:13.163Z,98902.80
2019-04-04T14:33:41.841Z,98907.28
2019-04-04T14:36:10.607Z,98903.37
2019-04-04T14:38:39.297Z,98881.89
2019-04-04T14:41:11.553Z,98882.04
2019-04-04T14:43:38.425Z,98871.16
2019-04-04T14:46:07.083Z,98858.91
2019-04-04T14:48:35.768Z,98844.06
2019-04-04T14:51:04.504Z,98828.04
2019-04-04T14:53:33.192Z,98819.14
2019-04-04T14:56:01.858Z,98813.47
2019-04-04T14:58:30.956Z,98809.72
2019-04-04T15:00:59.965Z,98819.01
2019-04-04T15:03:28.641Z,98820.48
2019-04-04T15:05:57.325Z,98837.53
2019-04-04T15:08:26.013Z,98839.30
2019-04-04T15:10:54.676Z,98840.09
2019-04-04T15:13:23.352Z,98850.19
2019-04-04T15:16:11.035Z,98858.73
2019-04-04T15:18:39.713Z,98868.02
2019-04-04T15:21:08.543Z,98873.80
2019-04-04T15:23:38.068Z,98870.23
2019-04-04T15:26:09.640Z,98876.23
2019-04-04T15:28:37.304Z,98875.55
2019-04-04T15:31:06.708Z,98881.37
2019-04-04T15:33:35.433Z,98891.23
2019-04-04T15:36:04.343Z,98900.08
2019-04-04T15:38:33.006Z,98897.17
2019-04-04T15:41:01.712Z,98899.75
2019-04-04T15:43:30.469Z,98909.07
2019-04-04T15:45:59.274Z,98896.48
2019-04-04T15:48:27.968Z,98907.70
2019-04-04T15:50:56.628Z,98900.66
2019-04-04T15:53:25.359Z,98896.13
2019-04-04T15:55:54.048Z,98891.94
2019-04-04T15:58:22.723Z,98891.41
2019-04-04T16:00:51.400Z,98905.55
2019-04-04T16:03:20.088Z,98910.05
2019-04-04T16:05:48.839Z,98918.87
2019-04-04T16:08:17.481Z,98927.02
2019-04-04T16:10:46.234Z,98935.30
2019-04-04T16:13:14.915Z,98941.30
2019-04-04T16:15:43.607Z,98945.97
2019-04-04T16:18:12.531Z,98949.28
2019-04-04T16:20:41.183Z,98956.81
2019-04-04T16:23:09.847Z,98966.00
2019-04-04T16:25:38.615Z,98970.71
2019-04-04T16:28:07.370Z,98973.64
2019-04-04T16:30:38.346Z,98978.66
2019-04-04T16:33:07.023Z,98993.70
2019-04-04T16:35:35.679Z,98976.34
2019-04-04T16:38:04.352Z,98974.34
2019-04-04T16:40:33.179Z,98985.23
2019-04-04T16:43:02.493Z,98977.38
2019-04-04T16:45:31.360Z,98977.91
2019-04-04T16:48:00.013Z,98987.63
2019-04-04T16:50:28.667Z,98983.16
2019-04-04T16:52:57.356Z,98988.45
2019-04-04T16:55:26.108Z,98992.97
2019-04-04T16:57:54.988Z,99006.20
2019-04-04T17:00:24.520Z,99003.94
2019-04-04T17:02:53.173Z,99001.34
2019-04-04T17:05:21.940Z,99013.36
2019-04-04T17:07:50.628Z,99018.80
2019-04-04T17:10:19.740Z,99016.20
2019-04-04T17:12:48.403Z,99016.77
2019-04-04T17:15:17.250Z,99016.06
2019-04-04T17:17:45.909Z,99009.94
2019-04-04T17:20:15.516Z,99007.98
2019-04-04T17:22:44.208Z,99007.06
2019-04-04T17:25:14.833Z,99014.12
2019-04-04T17:27:43.329Z,99019.92
2019-04-04T17:30:12.851Z,99021.73
2019-04-04T17:32:42.182Z,99019.04
2019-04-04T17:35:11.135Z,99015.11
2019-04-04T17:37:40.177Z,99023.00
2019-04-04T17:40:09.439Z,99032.21
2019-04-04T17:42:38.548Z,99016.52
2019-04-04T17:45:09.383Z,99018.05
2019-04-04T17:47:38.603Z,99010.89
2019-04-04T17:50:08.519Z,99011.93
2019-04-04T17:52:37.254Z,99017.80
2019-04-04T17:55:07.640Z,99011.05
2019-04-04T17:57:36.377Z,99003.45
2019-04-04T18:00:07.452Z,99010.19
2019-04-04T18:02:36.608Z,99009.84
2019-04-04T18:05:06.043Z,99018.50
2019-04-04T18:07:34.705Z,99008.95
2019-04-04T18:10:03.439Z,99008.34
2019-04-04T18:12:40.243Z,99005.22
2019-04-04T18:15:02.565Z,99008.91
2019-04-04T18:17:31.259Z,99004.69
2019-04-04T18:19:59.917Z,99008.47
2019-04-04T18:22:28.589Z,99010.87
2019-04-04T18:24:57.749Z,99015.08
2019-04-04T18:27:26.468Z,99019.82
2019-04-04T18:29:55.176Z,99019.00
2019-04-04T18:32:23.863Z,99031.97
2019-04-04T18:34:52.536Z,99032.89
2019-04-04T18:37:21.210Z,99040.72
2019-04-04T18:39:49.890Z,99038.00
2019-04-04T18:42:18.577Z,99047.80
2019-04-04T18:44:47.236Z,99050.34
2019-04-04T18:47:15.963Z,99054.01
2019-04-04T18:49:44.641Z,99061.91
2019-04-04T18:52:13.333Z,99051.78
2019-04-04T18:54:41.980Z,99046.23
2019-04-04T18:57:13.074Z,99058.58
2019-04-04T18:59:41.048Z,99055.93
2019-04-04T19:02:10.067Z,99044.62
2019-04-04T19:04:38.726Z,99051.17
2019-04-04T19:07:07.402Z,99058.58
2019-04-04T19:09:36.063Z,99060.48
2019-04-04T19:12:04.817Z,99066.80
2019-04-04T19:14:33.566Z,99074.67
2019-04-04T19:17:02.336Z,99086.32
2019-04-04T19:19:30.987Z,99088.34
2019-04-04T19:21:59.726Z,99087.82
2019-04-04T19:24:28.412Z,99092.08
2019-04-04T19:26:57.188Z,99099.16
2019-04-04T19:29:25.936Z,99094.84
2019-04-04T19:31:54.618Z,99098.07
2019-04-04T19:34:23.310Z,99095.37
2019-04-04T19:36:52.166Z,99098.74
2019-04-04T19:39:20.819Z,99093.52
2019-04-04T19:41:49.509Z,99096.52
2019-04-04T19:44:18.182Z,99099.72
2019-04-04T19:46:46.870Z,99107.64
2019-04-04T19:49:15.514Z,99103.73
2019-04-04T19:51:44.172Z,99113.75
2019-04-04T19:54:12.856Z,99112.14
2019-04-04T19:56:41.518Z,99122.17
2019-04-04T19:59:10.186Z,99123.06
2019-04-04T20:01:38.864Z,99117.77
2019-04-04T20:04:07.526Z,99117.25
2019-04-04T20:06:36.213Z,99120.01
2019-04-04T20:09:07.247Z,99119.59
2019-04-04T20:11:36.108Z,99112.98
2019-04-04T20:14:05.035Z,99122.06
2019-04-04T20:16:33.729Z,99117.80
2019-04-04T20:19:02.456Z,99120.91
2019-04-04T20:21:31.113Z,99129.08
2019-04-04T20:23:59.795Z,99129.76
2019-04-04T20:26:28.457Z,99140.73
2019-04-04T20:28:57.149Z,99145.05
2019-04-04T20:31:25.810Z,99149.54
2019-04-04T20:34:01.639Z,99148.95
2019-04-04T20:36:24.903Z,99151.20
2019-04-04T20:38:54.003Z,99149.66
2019-04-04T20:41:22.663Z,99156.25
2019-04-04T20:43:51.352Z,99157.05
2019-04-04T20:46:20.025Z,99157.63
2019-04-04T20:48:48.774Z,99153.48
2019-04-04T20:51:17.740Z,99153.78
2019-04-04T20:53:46.623Z,99154.02
2019-04-04T20:56:15.462Z,99147.81
2019-04-04T20:58:44.091Z,99150.95
2019-04-04T21:01:12.751Z,99151.42
2019-04-04T21:03:41.427Z,99150.56
2019-04-04T21:06:10.078Z,99157.04
2019-04-04T21:08:38.752Z,99155.95
2019-04-04T21:11:07.423Z,99159.58
2019-04-04T21:13:36.097Z,99165.19
2019-04-04T21:16:04.845Z,99172.09
2019-04-04T21:18:33.513Z,99175.20
2019-04-04T21:21:02.196Z,99184.61
2019-04-04T21:23:30.848Z,99188.90
2019-04-04T21:25:59.506Z,99200.55
2019-04-04T21:28:28.191Z,99199.98
2019-04-04T21:30:56.854Z,99198.20
2019-04-04T21:33:25.512Z,99201.73
2019-04-04T21:35:54.191Z,99211.56
2019-04-04T21:38:22.894Z,99211.80
2019-04-04T21:40:51.547Z,99205.92
2019-04-04T21:43:20.205Z,99209.31
2019-04-04T21:45:48.873Z,99205.55
2019-04-04T21:48:17.532Z,99205.28
2019-04-04T21:50:46.228Z,99207.70
2019-04-04T21:53:14.890Z,99217.17
2019-04-04T21:55:43.543Z,99218.88
2019-04-04T21:58:12.223Z,99219.89
2019-04-04T22:00:43.660Z,99222.31
2019-04-04T22:03:12.411Z,99221.87
2019-04-04T22:05:41.064Z,99216.97
2019-04-04T22:08:09.821Z,99218.44
2019-04-04T22:10:38.477Z,99225.48
2019-04-04T22:13:07.214Z,99224.23
2019-04-04T22:15:35.970Z,99225.56
2019-04-04T22:18:04.715Z,99233.55
2019-04-04T22:20:33.373Z,99243.06
2019-04-04T22:23:02.054Z,99250.11
2019-04-04T22:25:30.778Z,99251.66
2019-04-04T22:27:59.509Z,99245.85
2019-04-04T22:30:28.215Z,99250.64
2019-04-04T22:32:56.851Z,99239.41
2019-04-04T22:35:25.506Z,99253.36
2019-04-04T22:37:54.261Z,99259.16
2019-04-04T22:40:22.977Z,99260.48
2019-04-04T22:42:51.634Z,99260.48
2019-04-04T22:45:20.289Z,99258.86
2019-04-04T22:47:49.056Z,99254.98
2019-04-04T22:50:17.735Z,99256.72
2019-04-04T22:52:46.393Z,99263.39
2019-04-04T22:55:15.155Z,99261.58
2019-04-04T22:57:43.888Z,99267.13
2019-04-04T23:00:14.165Z,99275.56
2019-04-04T23:02:42.868Z,99283.19
2019-04-04T23:05:11.663Z,99284.44
2019-04-04T23:07:40.319Z,99284.28
2019-04-04T23:10:10.438Z,99278.06
2019-04-04T23:12:39.203Z,99269.91
2019-04-04T23:15:08.741Z,99275.05
2019-04-04T23:17:37.494Z,99279.53
2019-04-04T23:20:07.829Z,99287.97
2019-04-04T23:22:36.484Z,99279.00
2019-04-04T23:25:05.992Z,99264.71
2019-04-04T23:27:34.662Z,99260.98
2019-04-04T23:30:03.764Z,99252.91
2019-04-04T23:32:32.419Z,99246.98
2019-04-04T23:35:01.110Z,99248.30
2019-04-04T23:37:29.780Z,99239.30
2019-04-04T23:39:58.511Z,99239.56
2019-04-04T23:42:27.499Z,99239.79
2019-04-04T23:45:01.221Z,99238.55
2019-04-04T23:47:26.541Z,99242.80
2019-04-04T23:49:55.223Z,99240.69
2019-04-04T23:52:23.876Z,99231.45
2019-04-04T23:54:52.528Z,99231.00
2019-04-04T23:57:21.212Z,99236.27
2019-04-04T23:59:49.866Z,99227.53
